Time,TemperatureF,DewpointF,PressureIn,WindDirection,WindDirectionDegrees,WindSpeedMPH,WindSpeedGustMPH,Humidity,HourlyPrecipIn,Conditions,Clouds,dailyrainin,SoftwareType,DateUTC
2013-03-02 00:01:00,32.0,27.0,30.41,ESE,103,9.0,16.0,83,0.00,,,0.00,,2013-03-02 07:01:00,
2013-03-02 00:11:00,32.0,27.0,30.41,East,98,12.0,17.0,83,0.00,,,0.00,,2013-03-02 07:11:00,
2013-03-02 00:21:00,32.0,27.0,30.41,East,98,12.0,17.0,83,0.00,,,0.00,,2013-03-02 07:21:00,
2013-03-02 00:32:00,32.0,27.0,30.41,East,101,11.0,17.0,83,0.00,,,0.00,,2013-03-02 07:32:00,
2013-03-02 00:41:00,32.0,27.0,30.41,East,101,11.0,17.0,83,0.00,,,0.00,,2013-03-02 07:41:00,
2013-03-02 00:52:00,32.0,27.0,30.41,East,101,11.0,18.0,83,0.00,,,0.00,,2013-03-02 07:52:00,
2013-03-02 01:01:00,32.0,27.0,30.40,ESE,117,12.0,16.0,83,0.00,,,0.00,,2013-03-02 08:01:00,
2013-03-02 01:11:00,32.0,27.0,30.40,ESE,117,12.0,16.0,83,0.00,,,0.00,,2013-03-02 08:11:00,
2013-03-02 01:21:00,32.0,27.0,30.40,ESE,115,11.0,18.0,82,0.00,,,0.00,,2013-03-02 08:21:00,
2013-03-02 01:31:00,32.0,27.0,30.41,ESE,119,11.0,15.0,82,0.00,,,0.00,,2013-03-02 08:31:00,
2013-03-02 01:42:00,32.0,27.0,30.41,ESE,119,11.0,15.0,82,0.00,,,0.00,,2013-03-02 08:42:00,
2013-03-02 01:52:00,32.0,27.0,30.41,ESE,109,11.0,17.0,82,0.00,,,0.00,,2013-03-02 08:52:00,
2013-03-02 02:01:00,32.0,27.0,30.41,SE,128,13.0,18.0,82,0.00,,,0.00,,2013-03-02 09:01:00,
2013-03-02 02:11:00,32.0,27.0,30.40,ESE,111,15.0,18.0,82,0.00,,,0.00,,2013-03-02 09:11:00,
2013-03-02 02:21:00,32.0,27.0,30.40,ESE,111,15.0,18.0,82,0.00,,,0.00,,2013-03-02 09:21:00,
2013-03-02 02:31:00,32.0,27.0,30.40,SE,126,15.0,20.0,82,0.00,,,0.00,,2013-03-02 09:31:00,
2013-03-02 02:42:00,32.0,27.0,30.40,SE,126,15.0,20.0,82,0.00,,,0.00,,2013-03-02 09:42:00,
2013-03-02 02:52:00,32.0,27.0,30.39,SE,128,16.0,20.0,83,0.00,,,0.00,,2013-03-02 09:52:00,
2013-03-02 03:01:00,32.0,28.0,30.39,SE,126,14.0,20.0,84,0.00,,,0.00,,2013-03-02 10:01:00,
2013-03-02 03:21:00,32.0,28.0,30.38,SE,128,14.0,21.0,84,0.00,,,0.00,,2013-03-02 10:21:00,
2013-03-02 03:31:00,32.0,28.0,30.38,ESE,121,13.0,21.0,84,0.00,,,0.00,,2013-03-02 10:31:00,
2013-03-02 03:41:00,32.0,28.0,30.38,ESE,121,13.0,21.0,84,0.00,,,0.00,,2013-03-02 10:41:00,
2013-03-02 03:52:00,32.0,28.0,30.38,SE,134,14.0,21.0,85,0.00,,,0.00,,2013-03-02 10:52:00,
2013-03-02 04:01:00,32.0,28.0,30.37,ESE,120,16.0,22.0,85,0.00,,,0.00,,2013-03-02 11:01:00,
2013-03-02 04:11:00,32.0,28.0,30.37,ESE,120,16.0,22.0,85,0.00,,,0.00,,2013-03-02 11:11:00,
2013-03-02 04:21:00,32.0,28.0,30.37,SE,124,14.0,21.0,85,0.00,,,0.00,,2013-03-02 11:21:00,
2013-03-02 04:31:00,32.0,28.0,30.37,ESE,120,14.0,19.0,85,0.00,,,0.00,,2013-03-02 11:31:00,
2013-03-02 04:41:00,32.0,28.0,30.37,ESE,120,14.0,19.0,85,0.00,,,0.00,,2013-03-02 11:41:00,
2013-03-02 04:52:00,32.0,28.0,30.37,ESE,111,14.0,18.0,85,0.00,,,0.00,,2013-03-02 11:52:00,
2013-03-02 05:02:00,32.0,28.0,30.37,ESE,113,14.0,18.0,85,0.00,,,0.00,,2013-03-02 12:02:00,
2013-03-02 05:11:00,32.0,28.0,30.37,ESE,113,14.0,18.0,85,0.00,,,0.00,,2013-03-02 12:11:00,
2013-03-02 05:21:00,32.0,28.0,30.37,SE,130,12.0,19.0,85,0.00,,,0.00,,2013-03-02 12:21:00,
2013-03-02 05:32:00,32.0,28.0,30.37,SSE,153,8.0,13.0,86,0.00,,,0.00,,2013-03-02 12:32:00,
2013-03-02 05:53:00,32.0,28.0,30.37,ESE,123,12.0,16.0,86,0.00,,,0.00,,2013-03-02 12:53:00,
2013-03-02 06:01:00,32.0,28.0,30.37,ESE,120,12.0,16.0,86,0.00,,,0.00,,2013-03-02 13:01:00,
2013-03-02 06:11:00,32.0,28.0,30.37,ESE,120,12.0,16.0,86,0.00,,,0.00,,2013-03-02 13:11:00,
2013-03-02 06:21:00,31.0,28.0,30.36,SE,124,14.0,19.0,87,0.00,,,0.00,,2013-03-02 13:21:00,
2013-03-02 06:31:00,32.0,29.0,30.35,ESE,118,15.0,20.0,87,0.00,,,0.00,,2013-03-02 13:31:00,
2013-03-02 06:52:00,32.0,29.0,30.35,SE,132,15.0,19.0,87,0.00,,,0.00,,2013-03-02 13:52:00,
2013-03-02 07:01:00,32.0,29.0,30.35,ESE,123,13.0,17.0,87,0.00,,,0.00,,2013-03-02 14:01:00,
2013-03-02 07:11:00,32.0,29.0,30.35,ESE,123,13.0,17.0,87,0.00,,,0.00,,2013-03-02 14:11:00,
2013-03-02 07:21:00,32.0,29.0,30.35,ESE,114,14.0,19.0,87,0.00,,,0.00,,2013-03-02 14:21:00,
2013-03-02 07:31:00,31.0,28.0,30.34,ESE,107,13.0,19.0,87,0.00,,,0.00,,2013-03-02 14:31:00,
2013-03-02 07:41:00,31.0,28.0,30.34,ESE,107,13.0,19.0,87,0.00,,,0.00,,2013-03-02 14:41:00,
2013-03-02 07:52:00,32.0,29.0,30.35,SE,132,11.0,17.0,87,0.00,,,0.00,,2013-03-02 14:52:00,
2013-03-02 08:01:00,32.0,29.0,30.34,SE,131,13.0,19.0,87,0.00,,,0.00,,2013-03-02 15:01:00,
2013-03-02 08:11:00,32.0,29.0,30.34,SE,131,13.0,19.0,87,0.00,,,0.00,,2013-03-02 15:11:00,
2013-03-02 08:21:00,32.0,28.0,30.34,SE,124,17.0,24.0,86,0.00,,,0.00,,2013-03-02 15:21:00,
2013-03-02 08:31:00,32.0,28.0,30.34,ESE,113,14.0,24.0,86,0.00,,,0.00,,2013-03-02 15:31:00,
2013-03-02 08:41:00,32.0,28.0,30.34,ESE,113,14.0,24.0,86,0.00,,,0.00,,2013-03-02 15:41:00,
2013-03-02 08:51:00,32.0,28.0,30.34,ESE,117,16.0,21.0,86,0.00,,,0.00,,2013-03-02 15:51:00,
2013-03-02 09:01:00,32.0,28.0,30.33,ESE,123,16.0,22.0,86,0.00,,,0.00,,2013-03-02 16:01:00,
2013-03-02 09:11:00,32.0,28.0,30.33,ESE,123,16.0,22.0,86,0.00,,,0.00,,2013-03-02 16:11:00,
2013-03-02 09:21:00,33.0,29.0,30.33,SE,126,17.0,26.0,85,0.00,,,0.00,,2013-03-02 16:21:00,
2013-03-02 09:31:00,33.0,29.0,30.33,SE,138,16.0,24.0,84,0.00,,,0.00,,2013-03-02 16:31:00,
2013-03-02 09:41:00,33.0,29.0,30.33,SE,138,16.0,24.0,84,0.00,,,0.00,,2013-03-02 16:41:00,
2013-03-02 09:51:00,34.0,29.0,30.32,East,94,15.0,22.0,82,0.00,,,0.00,,2013-03-02 16:51:00,
2013-03-02 10:01:00,34.0,29.0,30.31,SE,128,16.0,26.0,81,0.00,,,0.00,,2013-03-02 17:01:00,
2013-03-02 10:11:00,34.0,29.0,30.31,SE,128,16.0,26.0,81,0.00,,,0.00,,2013-03-02 17:11:00,
2013-03-02 10:21:00,34.0,29.0,30.30,ESE,121,16.0,25.0,81,0.00,,,0.00,,2013-03-02 17:21:00,
2013-03-02 10:31:00,34.0,28.0,30.30,ESE,115,16.0,25.0,80,0.00,,,0.00,,2013-03-02 17:31:00,
2013-03-02 10:41:00,34.0,28.0,30.30,ESE,115,16.0,25.0,80,0.00,,,0.00,,2013-03-02 17:41:00,
2013-03-02 10:52:00,35.0,29.0,30.31,SE,140,17.0,22.0,79,0.00,,,0.00,,2013-03-02 17:52:00,
2013-03-02 11:01:00,35.0,29.0,30.31,ESE,112,16.0,21.0,79,0.00,,,0.00,,2013-03-02 18:01:00,
2013-03-02 11:11:00,35.0,29.0,30.31,ESE,112,16.0,21.0,79,0.00,,,0.00,,2013-03-02 18:11:00,
2013-03-02 11:21:00,35.0,29.0,30.30,SE,140,12.0,18.0,78,0.00,,,0.00,,2013-03-02 18:21:00,
2013-03-02 11:31:00,36.0,29.0,30.30,ESE,115,13.0,19.0,77,0.00,,,0.00,,2013-03-02 18:31:00,
2013-03-02 11:41:00,36.0,29.0,30.30,ESE,115,13.0,19.0,77,0.00,,,0.00,,2013-03-02 18:41:00,
2013-03-02 11:51:00,37.0,29.0,30.29,SE,125,12.0,18.0,74,0.00,,,0.00,,2013-03-02 18:51:00,
2013-03-02 12:01:00,37.0,29.0,30.28,SE,129,9.0,19.0,73,0.00,,,0.00,,2013-03-02 19:01:00,
2013-03-02 12:11:00,37.0,29.0,30.28,SE,129,9.0,19.0,73,0.00,,,0.00,,2013-03-02 19:11:00,
2013-03-02 12:21:00,37.0,29.0,30.28,ESE,115,13.0,22.0,72,0.00,,,0.00,,2013-03-02 19:21:00,
2013-03-02 12:31:00,38.0,30.0,30.27,SE,125,8.0,20.0,72,0.00,,,0.00,,2013-03-02 19:31:00,
2013-03-02 12:42:00,38.0,30.0,30.27,SE,125,8.0,20.0,72,0.00,,,0.00,,2013-03-02 19:42:00,
2013-03-02 12:51:00,38.0,29.0,30.27,SSE,155,9.0,16.0,70,0.00,,,0.00,,2013-03-02 19:51:00,
2013-03-02 13:01:00,38.0,29.0,30.26,SE,142,13.0,20.0,70,0.00,,,0.00,,2013-03-02 20:01:00,
2013-03-02 13:11:00,38.0,29.0,30.26,SE,142,13.0,20.0,70,0.00,,,0.00,,2013-03-02 20:11:00,
2013-03-02 13:21:00,38.0,29.0,30.25,SE,128,13.0,20.0,70,0.00,,,0.00,,2013-03-02 20:21:00,
2013-03-02 13:31:00,38.0,29.0,30.24,ESE,115,14.0,22.0,70,0.00,,,0.00,,2013-03-02 20:31:00,
2013-03-02 13:41:00,38.0,29.0,30.24,ESE,115,14.0,22.0,70,0.00,,,0.00,,2013-03-02 20:41:00,
2013-03-02 13:52:00,39.0,29.0,30.23,ESE,123,11.0,17.0,68,0.00,,,0.00,,2013-03-02 20:52:00,
2013-03-02 14:02:00,39.0,29.0,30.22,ESE,116,13.0,20.0,68,0.00,,,0.00,,2013-03-02 21:02:00,
2013-03-02 14:11:00,39.0,29.0,30.22,ESE,116,13.0,20.0,68,0.00,,,0.00,,2013-03-02 21:11:00,
2013-03-02 14:21:00,38.0,29.0,30.22,ESE,118,16.0,22.0,69,0.00,,,0.00,,2013-03-02 21:21:00,
2013-03-02 14:31:00,38.0,28.0,30.22,ESE,110,13.0,17.0,68,0.00,,,0.00,,2013-03-02 21:31:00,
2013-03-02 14:41:00,38.0,28.0,30.22,ESE,110,13.0,17.0,68,0.00,,,0.00,,2013-03-02 21:41:00,
2013-03-02 14:52:00,38.0,29.0,30.21,ESE,119,12.0,16.0,69,0.00,,,0.00,,2013-03-02 21:52:00,
2013-03-02 15:01:00,38.0,28.0,30.20,ESE,114,13.0,20.0,68,0.00,,,0.00,,2013-03-02 22:01:00,
2013-03-02 15:11:00,38.0,28.0,30.20,ESE,114,13.0,20.0,68,0.00,,,0.00,,2013-03-02 22:11:00,
2013-03-02 15:21:00,38.0,28.0,30.19,SE,127,13.0,24.0,68,0.00,,,0.00,,2013-03-02 22:21:00,
2013-03-02 15:31:00,38.0,29.0,30.18,ESE,107,15.0,20.0,69,0.00,,,0.00,,2013-03-02 22:31:00,
2013-03-02 15:41:00,38.0,29.0,30.18,ESE,107,15.0,20.0,69,0.00,,,0.00,,2013-03-02 22:41:00,
2013-03-02 15:52:00,38.0,28.0,30.17,ESE,119,17.0,25.0,68,0.00,,,0.00,,2013-03-02 22:52:00,
2013-03-02 16:01:00,39.0,29.0,30.16,ESE,114,18.0,25.0,67,0.00,,,0.00,,2013-03-02 23:01:00,
2013-03-02 16:11:00,38.0,28.0,30.15,ESE,122,16.0,21.0,67,0.00,,,0.00,,2013-03-02 23:11:00,
2013-03-02 16:21:00,38.0,28.0,30.15,ESE,122,16.0,21.0,67,0.00,,,0.00,,2013-03-02 23:21:00,
2013-03-02 16:31:00,38.0,28.0,30.15,ESE,123,15.0,23.0,68,0.00,,,0.00,,2013-03-02 23:31:00,
2013-03-02 16:41:00,38.0,28.0,30.15,ESE,123,15.0,23.0,68,0.00,,,0.00,,2013-03-02 23:41:00,
2013-03-02 16:52:00,38.0,29.0,30.14,ESE,103,13.0,24.0,69,0.00,,,0.00,,2013-03-02 23:52:00,
2013-03-02 17:02:00,37.0,28.0,30.12,SE,126,18.0,26.0,70,0.00,,,0.00,,2013-03-03 00:02:00,
2013-03-02 17:11:00,37.0,28.0,30.12,SE,126,18.0,26.0,70,0.00,,,0.00,,2013-03-03 00:11:00,
2013-03-02 17:22:00,37.0,28.0,30.12,SE,133,20.0,27.0,71,0.00,,,0.00,,2013-03-03 00:22:00,
2013-03-02 17:31:00,37.0,29.0,30.11,ESE,115,18.0,28.0,72,0.00,,,0.00,,2013-03-03 00:31:00,
2013-03-02 17:42:00,37.0,29.0,30.11,ESE,115,18.0,28.0,72,0.00,,,0.00,,2013-03-03 00:42:00,
2013-03-02 17:52:00,37.0,29.0,30.11,ESE,111,16.0,22.0,73,0.00,,,0.00,,2013-03-03 00:52:00,
2013-03-02 18:01:00,36.0,28.0,30.11,SE,136,15.0,24.0,73,0.00,,,0.00,,2013-03-03 01:01:00,
2013-03-02 18:11:00,36.0,28.0,30.11,SE,136,15.0,24.0,73,0.00,,,0.00,,2013-03-03 01:11:00,
2013-03-02 18:21:00,36.0,29.0,30.11,ESE,116,12.0,16.0,74,0.00,,,0.00,,2013-03-03 01:21:00,
2013-03-02 18:31:00,36.0,29.0,30.10,ESE,109,16.0,23.0,74,0.00,,,0.00,,2013-03-03 01:31:00,
2013-03-02 18:41:00,36.0,29.0,30.10,ESE,109,16.0,23.0,74,0.00,,,0.00,,2013-03-03 01:41:00,
2013-03-02 18:52:00,36.0,29.0,30.10,ESE,118,17.0,25.0,74,0.00,,,0.00,,2013-03-03 01:52:00,
2013-03-02 19:01:00,36.0,28.0,30.09,SE,125,16.0,24.0,73,0.00,,,0.00,,2013-03-03 02:01:00,
2013-03-02 19:11:00,36.0,29.0,30.09,ESE,120,14.0,21.0,74,0.00,,,0.00,,2013-03-03 02:11:00,
2013-03-02 19:21:00,36.0,29.0,30.09,ESE,120,14.0,21.0,74,0.00,,,0.00,,2013-03-03 02:21:00,
2013-03-02 19:31:00,35.0,28.0,30.09,ESE,119,16.0,24.0,76,0.00,,,0.00,,2013-03-03 02:31:00,
2013-03-02 19:41:00,35.0,28.0,30.09,ESE,119,16.0,24.0,76,0.00,,,0.00,,2013-03-03 02:41:00,
2013-03-02 19:52:00,35.0,29.0,30.07,SE,132,15.0,23.0,77,0.00,,,0.00,,2013-03-03 02:52:00,
2013-03-02 20:01:00,35.0,28.0,30.07,SE,127,20.0,25.0,76,0.00,,,0.00,,2013-03-03 03:01:00,
2013-03-02 20:11:00,35.0,28.0,30.07,SE,127,20.0,25.0,76,0.00,,,0.00,,2013-03-03 03:11:00,
2013-03-02 20:21:00,35.0,28.0,30.06,ESE,123,20.0,25.0,75,0.00,,,0.00,,2013-03-03 03:21:00,
2013-03-02 20:31:00,35.0,28.0,30.05,ESE,123,18.0,24.0,74,0.00,,,0.00,,2013-03-03 03:31:00,
2013-03-02 20:41:00,35.0,28.0,30.05,ESE,123,18.0,24.0,74,0.00,,,0.00,,2013-03-03 03:41:00,
2013-03-02 20:52:00,35.0,28.0,30.05,SE,126,17.0,26.0,75,0.00,,,0.00,,2013-03-03 03:52:00,
2013-03-02 21:01:00,36.0,29.0,30.04,SE,130,20.0,25.0,74,0.00,,,0.00,,2013-03-03 04:01:00,
2013-03-02 21:11:00,36.0,29.0,30.04,SE,130,20.0,25.0,74,0.00,,,0.00,,2013-03-03 04:11:00,
2013-03-02 21:21:00,36.0,29.0,30.04,ESE,115,18.0,23.0,74,0.00,,,0.00,,2013-03-03 04:21:00,
2013-03-02 21:31:00,36.0,28.0,30.05,ESE,118,17.0,25.0,73,0.00,,,0.00,,2013-03-03 04:31:00,
2013-03-02 21:41:00,36.0,28.0,30.05,ESE,118,17.0,25.0,73,0.00,,,0.00,,2013-03-03 04:41:00,
2013-03-02 21:52:00,36.0,29.0,30.04,ESE,114,17.0,28.0,74,0.00,,,0.00,,2013-03-03 04:52:00,
2013-03-02 22:01:00,36.0,29.0,30.04,ESE,117,20.0,25.0,74,0.00,,,0.00,,2013-03-03 05:01:00,
2013-03-02 22:11:00,36.0,29.0,30.04,ESE,117,20.0,25.0,74,0.00,,,0.00,,2013-03-03 05:11:00,
2013-03-02 22:21:00,35.0,28.0,30.03,SE,126,17.0,23.0,75,0.00,,,0.00,,2013-03-03 05:21:00,
2013-03-02 22:32:00,36.0,29.0,30.03,SE,135,17.0,25.0,74,0.00,,,0.00,,2013-03-03 05:32:00,
2013-03-02 22:42:00,36.0,29.0,30.03,SE,135,17.0,25.0,74,0.00,,,0.00,,2013-03-03 05:42:00,
2013-03-02 22:52:00,35.0,28.0,30.03,SE,126,17.0,24.0,75,0.00,,,0.00,,2013-03-03 05:52:00,
2013-03-02 23:01:00,36.0,29.0,30.02,ESE,119,19.0,26.0,74,0.00,,,0.00,,2013-03-03 06:01:00,
2013-03-02 23:11:00,36.0,29.0,30.02,ESE,119,19.0,26.0,74,0.00,,,0.00,,2013-03-03 06:11:00,
2013-03-02 23:21:00,36.0,29.0,30.02,ESE,115,14.0,21.0,74,0.00,,,0.00,,2013-03-03 06:21:00,
2013-03-02 23:31:00,35.0,28.0,30.01,ESE,120,15.0,24.0,75,0.00,,,0.00,,2013-03-03 06:31:00,
2013-03-02 23:42:00,35.0,28.0,30.01,ESE,120,15.0,24.0,75,0.00,,,0.00,,2013-03-03 06:42:00,
2013-03-02 23:52:00,35.0,28.0,30.00,ESE,111,19.0,24.0,75,0.00,,,0.00,,2013-03-03 06:52:00,